sensor_id;sensor_type;location;lat;lon;timestamp;P1;durP1;ratioP1;P2;durP2;ratioP2
19384;SDS011;9828;54.122;17.974;2022-10-30T00:04:17;8.60;;;3.87;;
19384;SDS011;9828;54.122;17.974;2022-10-30T00:09:38;7.40;;;3.30;;
19384;SDS011;9828;54.122;17.974;2022-10-30T00:14:59;7.60;;;3.50;;
19384;SDS011;9828;54.122;17.974;2022-10-30T00:20:20;7.07;;;3.17;;
19384;SDS011;9828;54.122;17.974;2022-10-30T00:25:41;7.47;;;3.80;;
19384;SDS011;9828;54.122;17.974;2022-10-30T00:31:03;8.27;;;4.07;;
19384;SDS011;9828;54.122;17.974;2022-10-30T00:36:24;9.90;;;4.80;;
19384;SDS011;9828;54.122;17.974;2022-10-30T00:41:45;9.73;;;3.90;;
19384;SDS011;9828;54.122;17.974;2022-10-30T00:47:10;6.40;;;3.73;;
19384;SDS011;9828;54.122;17.974;2022-10-30T00:58:12;9.37;;;4.07;;
19384;SDS011;9828;54.122;17.974;2022-10-30T01:03:35;8.53;;;2.57;;
19384;SDS011;9828;54.122;17.974;2022-10-30T01:08:58;7.07;;;2.57;;
19384;SDS011;9828;54.122;17.974;2022-10-30T01:14:20;5.17;;;2.67;;
19384;SDS011;9828;54.122;17.974;2022-10-30T01:25:47;5.63;;;2.87;;
19384;SDS011;9828;54.122;17.974;2022-10-30T01:48:25;8.57;;;3.87;;
19384;SDS011;9828;54.122;17.974;2022-10-30T01:54:18;10.20;;;3.17;;
19384;SDS011;9828;54.122;17.974;2022-10-30T02:05:25;7.97;;;3.10;;
19384;SDS011;9828;54.122;17.974;2022-10-30T02:11:06;6.20;;;2.80;;
19384;SDS011;9828;54.122;17.974;2022-10-30T02:16:34;5.23;;;2.77;;
19384;SDS011;9828;54.122;17.974;2022-10-30T02:22:01;4.70;;;2.23;;
19384;SDS011;9828;54.122;17.974;2022-10-30T02:27:22;4.67;;;2.47;;
19384;SDS011;9828;54.122;17.974;2022-10-30T02:32:44;9.20;;;3.33;;
19384;SDS011;9828;54.122;17.974;2022-10-30T02:38:05;7.27;;;3.67;;
19384;SDS011;9828;54.122;17.974;2022-10-30T02:43:26;7.57;;;3.67;;
19384;SDS011;9828;54.122;17.974;2022-10-30T02:48:47;6.40;;;3.20;;
19384;SDS011;9828;54.122;17.974;2022-10-30T02:54:08;7.00;;;3.43;;
19384;SDS011;9828;54.122;17.974;2022-10-30T02:59:30;8.57;;;3.83;;
19384;SDS011;9828;54.122;17.974;2022-10-30T03:04:52;7.37;;;3.30;;
19384;SDS011;9828;54.122;17.974;2022-10-30T03:10:14;6.23;;;3.27;;
19384;SDS011;9828;54.122;17.974;2022-10-30T03:15:35;8.20;;;3.90;;
19384;SDS011;9828;54.122;17.974;2022-10-30T03:20:58;4.43;;;2.60;;
19384;SDS011;9828;54.122;17.974;2022-10-30T03:26:21;6.73;;;2.83;;
19384;SDS011;9828;54.122;17.974;2022-10-30T03:31:46;9.47;;;3.77;;
19384;SDS011;9828;54.122;17.974;2022-10-30T03:37:14;7.00;;;5.03;;
19384;SDS011;9828;54.122;17.974;2022-10-30T03:42:38;6.30;;;3.77;;
19384;SDS011;9828;54.122;17.974;2022-10-30T03:48:01;9.20;;;4.63;;
19384;SDS011;9828;54.122;17.974;2022-10-30T03:53:23;7.70;;;4.30;;
19384;SDS011;9828;54.122;17.974;2022-10-30T03:58:45;6.53;;;3.50;;
19384;SDS011;9828;54.122;17.974;2022-10-30T04:04:11;5.87;;;3.17;;
19384;SDS011;9828;54.122;17.974;2022-10-30T04:09:32;12.83;;;5.23;;
19384;SDS011;9828;54.122;17.974;2022-10-30T04:14:53;12.57;;;4.80;;
19384;SDS011;9828;54.122;17.974;2022-10-30T04:20:16;8.27;;;3.97;;
19384;SDS011;9828;54.122;17.974;2022-10-30T04:25:38;13.37;;;5.20;;
19384;SDS011;9828;54.122;17.974;2022-10-30T04:31:00;8.43;;;3.90;;
19384;SDS011;9828;54.122;17.974;2022-10-30T04:36:24;9.87;;;4.03;;
19384;SDS011;9828;54.122;17.974;2022-10-30T04:41:52;9.83;;;3.40;;
19384;SDS011;9828;54.122;17.974;2022-10-30T04:47:23;6.37;;;3.30;;
19384;SDS011;9828;54.122;17.974;2022-10-30T04:52:44;7.93;;;3.50;;
19384;SDS011;9828;54.122;17.974;2022-10-30T04:58:05;7.10;;;3.17;;
19384;SDS011;9828;54.122;17.974;2022-10-30T05:03:29;8.37;;;3.30;;
19384;SDS011;9828;54.122;17.974;2022-10-30T05:08:53;9.30;;;3.57;;
19384;SDS011;9828;54.122;17.974;2022-10-30T05:14:28;5.80;;;3.23;;
19384;SDS011;9828;54.122;17.974;2022-10-30T05:19:50;7.83;;;3.80;;
19384;SDS011;9828;54.122;17.974;2022-10-30T05:25:11;10.47;;;4.40;;
19384;SDS011;9828;54.122;17.974;2022-10-30T05:30:34;13.37;;;5.37;;
19384;SDS011;9828;54.122;17.974;2022-10-30T05:36:00;8.63;;;5.47;;
19384;SDS011;9828;54.122;17.974;2022-10-30T05:41:21;10.40;;;5.47;;
19384;SDS011;9828;54.122;17.974;2022-10-30T05:46:42;8.70;;;5.67;;
19384;SDS011;9828;54.122;17.974;2022-10-30T05:52:16;13.63;;;7.47;;
19384;SDS011;9828;54.122;17.974;2022-10-30T05:57:38;16.40;;;8.03;;
19384;SDS011;9828;54.122;17.974;2022-10-30T06:03:02;15.67;;;8.60;;
19384;SDS011;9828;54.122;17.974;2022-10-30T06:08:25;14.23;;;8.53;;
19384;SDS011;9828;54.122;17.974;2022-10-30T06:13:50;10.60;;;6.60;;
19384;SDS011;9828;54.122;17.974;2022-10-30T06:19:15;10.53;;;5.77;;
19384;SDS011;9828;54.122;17.974;2022-10-30T06:24:37;10.73;;;5.17;;
19384;SDS011;9828;54.122;17.974;2022-10-30T06:30:16;8.50;;;4.20;;
19384;SDS011;9828;54.122;17.974;2022-10-30T06:35:38;9.37;;;4.47;;
19384;SDS011;9828;54.122;17.974;2022-10-30T06:40:59;8.47;;;4.87;;
19384;SDS011;9828;54.122;17.974;2022-10-30T06:46:23;10.57;;;4.60;;
19384;SDS011;9828;54.122;17.974;2022-10-30T06:51:45;10.87;;;4.30;;
19384;SDS011;9828;54.122;17.974;2022-10-30T06:57:08;12.90;;;4.93;;
19384;SDS011;9828;54.122;17.974;2022-10-30T07:02:59;7.03;;;5.03;;
19384;SDS011;9828;54.122;17.974;2022-10-30T07:08:22;8.63;;;3.90;;
19384;SDS011;9828;54.122;17.974;2022-10-30T07:13:44;8.60;;;5.87;;
19384;SDS011;9828;54.122;17.974;2022-10-30T07:19:21;10.73;;;5.93;;
19384;SDS011;9828;54.122;17.974;2022-10-30T07:24:46;11.07;;;7.00;;
19384;SDS011;9828;54.122;17.974;2022-10-30T07:30:22;13.50;;;8.20;;
19384;SDS011;9828;54.122;17.974;2022-10-30T07:36:04;10.47;;;6.03;;
19384;SDS011;9828;54.122;17.974;2022-10-30T07:41:44;7.90;;;4.50;;
19384;SDS011;9828;54.122;17.974;2022-10-30T07:47:27;6.60;;;4.93;;
19384;SDS011;9828;54.122;17.974;2022-10-30T07:52:49;7.47;;;4.60;;
19384;SDS011;9828;54.122;17.974;2022-10-30T07:58:16;9.23;;;4.60;;
19384;SDS011;9828;54.122;17.974;2022-10-30T08:04:01;6.93;;;4.33;;
19384;SDS011;9828;54.122;17.974;2022-10-30T08:09:22;5.27;;;3.13;;
19384;SDS011;9828;54.122;17.974;2022-10-30T08:14:44;4.00;;;3.10;;
19384;SDS011;9828;54.122;17.974;2022-10-30T08:20:05;5.80;;;3.37;;
19384;SDS011;9828;54.122;17.974;2022-10-30T08:25:29;4.43;;;3.77;;
19384;SDS011;9828;54.122;17.974;2022-10-30T08:30:51;4.83;;;3.23;;
19384;SDS011;9828;54.122;17.974;2022-10-30T08:36:28;4.87;;;2.80;;
19384;SDS011;9828;54.122;17.974;2022-10-30T08:41:49;3.90;;;2.67;;
19384;SDS011;9828;54.122;17.974;2022-10-30T08:47:12;4.77;;;3.17;;
19384;SDS011;9828;54.122;17.974;2022-10-30T08:52:33;6.43;;;3.30;;
19384;SDS011;9828;54.122;17.974;2022-10-30T08:57:54;3.80;;;2.80;;
19384;SDS011;9828;54.122;17.974;2022-10-30T09:03:16;4.80;;;2.87;;
19384;SDS011;9828;54.122;17.974;2022-10-30T09:08:57;5.77;;;3.20;;
19384;SDS011;9828;54.122;17.974;2022-10-30T09:14:36;4.83;;;3.10;;
19384;SDS011;9828;54.122;17.974;2022-10-30T09:19:59;4.00;;;2.47;;
19384;SDS011;9828;54.122;17.974;2022-10-30T09:25:27;6.87;;;3.70;;
19384;SDS011;9828;54.122;17.974;2022-10-30T09:31:04;8.17;;;4.20;;
19384;SDS011;9828;54.122;17.974;2022-10-30T09:36:29;7.13;;;4.97;;
19384;SDS011;9828;54.122;17.974;2022-10-30T09:53:15;10.57;;;9.13;;
19384;SDS011;9828;54.122;17.974;2022-10-30T10:04:30;35.60;;;26.30;;
19384;SDS011;9828;54.122;17.974;2022-10-30T10:10:10;20.37;;;15.70;;
19384;SDS011;9828;54.122;17.974;2022-10-30T10:15:46;15.03;;;9.47;;
19384;SDS011;9828;54.122;17.974;2022-10-30T10:21:14;12.43;;;8.20;;
19384;SDS011;9828;54.122;17.974;2022-10-30T10:54:52;13.07;;;9.60;;
19384;SDS011;9828;54.122;17.974;2022-10-30T11:05:59;14.87;;;9.73;;
19384;SDS011;9828;54.122;17.974;2022-10-30T11:11:55;17.97;;;11.77;;
19384;SDS011;9828;54.122;17.974;2022-10-30T11:17:25;23.00;;;12.03;;
19384;SDS011;9828;54.122;17.974;2022-10-30T11:22:52;23.43;;;13.30;;
19384;SDS011;9828;54.122;17.974;2022-10-30T11:28:13;16.70;;;9.10;;
19384;SDS011;9828;54.122;17.974;2022-10-30T11:33:53;16.30;;;7.50;;
19384;SDS011;9828;54.122;17.974;2022-10-30T11:39:18;10.77;;;6.27;;
19384;SDS011;9828;54.122;17.974;2022-10-30T11:44:47;12.73;;;7.50;;
19384;SDS011;9828;54.122;17.974;2022-10-30T11:55:46;8.87;;;6.50;;
19384;SDS011;9828;54.122;17.974;2022-10-30T12:06:36;29.50;;;15.70;;
19384;SDS011;9828;54.122;17.974;2022-10-30T12:11:57;19.33;;;10.63;;
19384;SDS011;9828;54.122;17.974;2022-10-30T12:17:20;12.80;;;7.30;;
19384;SDS011;9828;54.122;17.974;2022-10-30T12:22:41;9.23;;;6.20;;
19384;SDS011;9828;54.122;17.974;2022-10-30T12:28:03;9.37;;;6.13;;
19384;SDS011;9828;54.122;17.974;2022-10-30T12:33:33;10.03;;;7.00;;
19384;SDS011;9828;54.122;17.974;2022-10-30T12:50:31;18.33;;;12.33;;
19384;SDS011;9828;54.122;17.974;2022-10-30T12:56:08;28.83;;;17.60;;
19384;SDS011;9828;54.122;17.974;2022-10-30T13:01:35;29.07;;;17.87;;
19384;SDS011;9828;54.122;17.974;2022-10-30T13:12:47;14.25;;;9.85;;
19384;SDS011;9828;54.122;17.974;2022-10-30T13:18:15;17.77;;;9.45;;
19384;SDS011;9828;54.122;17.974;2022-10-30T13:35:25;8.60;;;6.13;;
19384;SDS011;9828;54.122;17.974;2022-10-30T13:52:12;8.93;;;5.25;;
19384;SDS011;9828;54.122;17.974;2022-10-30T13:57:44;8.82;;;5.35;;
19384;SDS011;9828;54.122;17.974;2022-10-30T14:09:00;9.02;;;5.53;;
19384;SDS011;9828;54.122;17.974;2022-10-30T14:14:29;10.48;;;5.30;;
19384;SDS011;9828;54.122;17.974;2022-10-30T14:25:32;5.70;;;4.50;;
19384;SDS011;9828;54.122;17.974;2022-10-30T14:31:10;4.45;;;3.40;;
19384;SDS011;9828;54.122;17.974;2022-10-30T14:47:58;14.10;;;8.75;;
19384;SDS011;9828;54.122;17.974;2022-10-30T14:59:39;25.45;;;13.50;;
19384;SDS011;9828;54.122;17.974;2022-10-30T15:10:50;11.90;;;7.82;;
19384;SDS011;9828;54.122;17.974;2022-10-30T15:16:19;15.83;;;9.47;;
19384;SDS011;9828;54.122;17.974;2022-10-30T15:21:42;16.63;;;10.90;;
19384;SDS011;9828;54.122;17.974;2022-10-30T15:27:10;17.83;;;12.37;;
19384;SDS011;9828;54.122;17.974;2022-10-30T15:32:39;20.07;;;12.33;;
19384;SDS011;9828;54.122;17.974;2022-10-30T15:38:02;17.40;;;11.57;;
19384;SDS011;9828;54.122;17.974;2022-10-30T15:43:36;15.50;;;10.60;;
19384;SDS011;9828;54.122;17.974;2022-10-30T15:49:01;17.63;;;9.90;;
19384;SDS011;9828;54.122;17.974;2022-10-30T15:54:23;16.87;;;10.60;;
19384;SDS011;9828;54.122;17.974;2022-10-30T15:59:50;15.93;;;10.03;;
19384;SDS011;9828;54.122;17.974;2022-10-30T16:05:20;19.17;;;11.93;;
19384;SDS011;9828;54.122;17.974;2022-10-30T16:10:42;22.83;;;12.73;;
19384;SDS011;9828;54.122;17.974;2022-10-30T16:16:04;22.17;;;12.80;;
19384;SDS011;9828;54.122;17.974;2022-10-30T16:21:29;24.67;;;12.93;;
19384;SDS011;9828;54.122;17.974;2022-10-30T16:32:49;31.93;;;17.70;;
19384;SDS011;9828;54.122;17.974;2022-10-30T16:38:11;34.63;;;18.50;;
19384;SDS011;9828;54.122;17.974;2022-10-30T16:43:33;36.37;;;21.47;;
19384;SDS011;9828;54.122;17.974;2022-10-30T16:48:55;50.23;;;24.50;;
19384;SDS011;9828;54.122;17.974;2022-10-30T16:54:24;50.90;;;26.80;;
19384;SDS011;9828;54.122;17.974;2022-10-30T16:59:48;71.80;;;42.17;;
19384;SDS011;9828;54.122;17.974;2022-10-30T17:05:19;71.00;;;44.00;;
19384;SDS011;9828;54.122;17.974;2022-10-30T17:11:02;74.07;;;44.80;;
19384;SDS011;9828;54.122;17.974;2022-10-30T17:16:32;71.40;;;40.00;;
19384;SDS011;9828;54.122;17.974;2022-10-30T17:22:02;73.37;;;41.03;;
19384;SDS011;9828;54.122;17.974;2022-10-30T17:27:35;75.20;;;42.00;;
19384;SDS011;9828;54.122;17.974;2022-10-30T17:33:26;61.60;;;37.50;;
19384;SDS011;9828;54.122;17.974;2022-10-30T17:38:56;72.30;;;42.60;;
19384;SDS011;9828;54.122;17.974;2022-10-30T17:44:18;62.87;;;41.07;;
19384;SDS011;9828;54.122;17.974;2022-10-30T17:49:42;79.07;;;45.27;;
19384;SDS011;9828;54.122;17.974;2022-10-30T17:55:06;82.80;;;48.73;;
19384;SDS011;9828;54.122;17.974;2022-10-30T18:00:40;111.53;;;65.70;;
19384;SDS011;9828;54.122;17.974;2022-10-30T18:06:02;119.40;;;74.20;;
19384;SDS011;9828;54.122;17.974;2022-10-30T18:11:25;121.83;;;70.33;;
19384;SDS011;9828;54.122;17.974;2022-10-30T18:16:46;111.73;;;62.53;;
19384;SDS011;9828;54.122;17.974;2022-10-30T18:22:10;118.00;;;62.73;;
19384;SDS011;9828;54.122;17.974;2022-10-30T18:27:33;113.50;;;65.30;;
19384;SDS011;9828;54.122;17.974;2022-10-30T18:32:54;111.80;;;67.00;;
19384;SDS011;9828;54.122;17.974;2022-10-30T18:38:16;124.27;;;69.17;;
19384;SDS011;9828;54.122;17.974;2022-10-30T18:43:37;125.57;;;70.27;;
19384;SDS011;9828;54.122;17.974;2022-10-30T18:49:00;122.30;;;69.37;;
19384;SDS011;9828;54.122;17.974;2022-10-30T18:54:22;129.27;;;68.33;;
19384;SDS011;9828;54.122;17.974;2022-10-30T18:59:43;133.60;;;71.23;;
19384;SDS011;9828;54.122;17.974;2022-10-30T19:05:38;123.87;;;69.63;;
19384;SDS011;9828;54.122;17.974;2022-10-30T19:11:02;116.20;;;62.80;;
19384;SDS011;9828;54.122;17.974;2022-10-30T19:16:23;106.13;;;54.97;;
19384;SDS011;9828;54.122;17.974;2022-10-30T19:21:45;94.37;;;52.03;;
19384;SDS011;9828;54.122;17.974;2022-10-30T19:27:06;99.10;;;52.23;;
19384;SDS011;9828;54.122;17.974;2022-10-30T19:32:27;96.13;;;50.10;;
19384;SDS011;9828;54.122;17.974;2022-10-30T19:37:48;100.43;;;52.70;;
19384;SDS011;9828;54.122;17.974;2022-10-30T19:43:09;106.17;;;55.20;;
19384;SDS011;9828;54.122;17.974;2022-10-30T19:48:30;108.30;;;58.40;;
19384;SDS011;9828;54.122;17.974;2022-10-30T19:54:12;99.10;;;55.63;;
19384;SDS011;9828;54.122;17.974;2022-10-30T19:59:33;102.03;;;55.17;;
19384;SDS011;9828;54.122;17.974;2022-10-30T20:04:54;96.70;;;54.20;;
19384;SDS011;9828;54.122;17.974;2022-10-30T20:10:16;96.33;;;51.47;;
19384;SDS011;9828;54.122;17.974;2022-10-30T20:15:39;89.73;;;46.37;;
19384;SDS011;9828;54.122;17.974;2022-10-30T20:21:04;75.10;;;41.27;;
19384;SDS011;9828;54.122;17.974;2022-10-30T20:26:29;81.57;;;44.53;;
19384;SDS011;9828;54.122;17.974;2022-10-30T20:31:51;81.63;;;47.10;;
19384;SDS011;9828;54.122;17.974;2022-10-30T20:37:12;91.03;;;51.47;;
19384;SDS011;9828;54.122;17.974;2022-10-30T20:42:32;83.10;;;49.00;;
19384;SDS011;9828;54.122;17.974;2022-10-30T20:47:56;87.73;;;50.17;;
19384;SDS011;9828;54.122;17.974;2022-10-30T20:53:17;88.23;;;48.83;;
19384;SDS011;9828;54.122;17.974;2022-10-30T20:58:38;91.33;;;48.67;;
19384;SDS011;9828;54.122;17.974;2022-10-30T21:04:00;70.03;;;45.00;;
19384;SDS011;9828;54.122;17.974;2022-10-30T21:09:22;77.27;;;45.33;;
19384;SDS011;9828;54.122;17.974;2022-10-30T21:14:43;90.43;;;52.83;;
19384;SDS011;9828;54.122;17.974;2022-10-30T21:20:04;74.00;;;47.10;;
19384;SDS011;9828;54.122;17.974;2022-10-30T21:25:26;73.57;;;41.87;;
19384;SDS011;9828;54.122;17.974;2022-10-30T21:30:47;65.70;;;40.70;;
19384;SDS011;9828;54.122;17.974;2022-10-30T21:36:12;64.03;;;39.20;;
19384;SDS011;9828;54.122;17.974;2022-10-30T21:41:35;68.90;;;41.23;;
19384;SDS011;9828;54.122;17.974;2022-10-30T21:46:56;73.83;;;43.70;;
19384;SDS011;9828;54.122;17.974;2022-10-30T21:52:17;70.83;;;44.93;;
19384;SDS011;9828;54.122;17.974;2022-10-30T21:57:38;71.90;;;43.53;;
19384;SDS011;9828;54.122;17.974;2022-10-30T22:02:59;77.03;;;45.93;;
19384;SDS011;9828;54.122;17.974;2022-10-30T22:08:20;86.83;;;49.03;;
19384;SDS011;9828;54.122;17.974;2022-10-30T22:13:42;77.10;;;47.10;;
19384;SDS011;9828;54.122;17.974;2022-10-30T22:19:04;74.53;;;47.70;;
19384;SDS011;9828;54.122;17.974;2022-10-30T22:24:26;87.60;;;50.27;;
19384;SDS011;9828;54.122;17.974;2022-10-30T22:29:47;74.43;;;45.00;;
19384;SDS011;9828;54.122;17.974;2022-10-30T22:35:08;73.90;;;47.30;;
19384;SDS011;9828;54.122;17.974;2022-10-30T22:40:30;76.53;;;44.77;;
19384;SDS011;9828;54.122;17.974;2022-10-30T22:45:51;76.33;;;46.37;;
19384;SDS011;9828;54.122;17.974;2022-10-30T22:51:13;69.20;;;40.67;;
19384;SDS011;9828;54.122;17.974;2022-10-30T22:56:36;81.30;;;41.37;;
19384;SDS011;9828;54.122;17.974;2022-10-30T23:01:59;72.77;;;41.23;;
19384;SDS011;9828;54.122;17.974;2022-10-30T23:07:20;82.93;;;39.63;;
19384;SDS011;9828;54.122;17.974;2022-10-30T23:12:41;81.23;;;37.57;;
19384;SDS011;9828;54.122;17.974;2022-10-30T23:18:02;76.53;;;39.37;;
19384;SDS011;9828;54.122;17.974;2022-10-30T23:23:23;74.63;;;38.67;;
19384;SDS011;9828;54.122;17.974;2022-10-30T23:28:44;65.17;;;35.07;;
19384;SDS011;9828;54.122;17.974;2022-10-30T23:34:09;71.33;;;33.53;;
19384;SDS011;9828;54.122;17.974;2022-10-30T23:39:31;62.97;;;32.40;;
19384;SDS011;9828;54.122;17.974;2022-10-30T23:44:52;64.93;;;30.90;;
19384;SDS011;9828;54.122;17.974;2022-10-30T23:50:13;53.00;;;28.50;;
19384;SDS011;9828;54.122;17.974;2022-10-30T23:55:35;60.30;;;29.60;;
